createdAt,value
2023-01-23T00:01:47.183Z,103470.59
2023-01-23T00:03:48.926Z,103462.69
2023-01-23T00:06:01.283Z,103461.19
2023-01-23T00:08:02.993Z,103453.69
2023-01-23T00:10:05.072Z,103447.38
2023-01-23T00:12:07.007Z,103434.84
2023-01-23T00:14:10.178Z,103438.44
2023-01-23T00:16:17.909Z,103426.13
2023-01-23T00:18:19.632Z,103426.44
2023-01-23T00:20:21.639Z,103430.03
2023-01-23T00:22:23.457Z,103423.59
2023-01-23T00:24:25.225Z,103419.84
2023-01-23T00:26:29.745Z,103420.00
2023-01-23T00:28:31.839Z,103421.34
2023-01-23T00:30:34.178Z,103417.59
2023-01-23T00:32:36.006Z,103415.19
2023-01-23T00:34:38.340Z,103416.09
2023-01-23T00:36:42.363Z,103427.34
2023-01-23T00:38:44.244Z,103418.50
2023-01-23T00:40:46.090Z,103415.97
2023-01-23T00:42:47.972Z,103415.69
2023-01-23T00:44:49.787Z,103419.88
2023-01-23T00:46:51.493Z,103426.59
2023-01-23T00:48:53.391Z,103425.84
2023-01-23T00:50:55.341Z,103425.56
2023-01-23T00:52:57.134Z,103440.50
2023-01-23T00:54:59.044Z,103431.69
2023-01-23T00:57:00.883Z,103433.34
2023-01-23T00:59:02.883Z,103432.47
2023-01-23T01:01:04.791Z,103434.84
2023-01-23T01:03:07.323Z,103430.22
2023-01-23T01:05:09.604Z,103437.28
2023-01-23T01:07:11.315Z,103433.69
2023-01-23T01:09:13.064Z,103431.91
2023-01-23T01:11:15.012Z,103428.44
2023-01-23T01:13:21.556Z,103433.97
2023-01-23T01:15:23.490Z,103427.25
2023-01-23T01:17:25.328Z,103430.13
2023-01-23T01:19:28.448Z,103432.81
2023-01-23T01:21:30.510Z,103428.91
2023-01-23T01:23:32.306Z,103435.78
2023-01-23T01:25:34.439Z,103442.38
2023-01-23T01:27:36.157Z,103448.94
2023-01-23T01:29:37.965Z,103447.31
2023-01-23T01:31:39.778Z,103444.63
2023-01-23T01:33:43.652Z,103444.16
2023-01-23T01:35:45.581Z,103444.75
2023-01-23T01:37:47.945Z,103437.00
2023-01-23T01:39:49.815Z,103439.06
2023-01-23T01:41:51.677Z,103434.59
2023-01-23T01:43:57.183Z,103432.53
2023-01-23T01:46:25.418Z,103431.63
2023-01-23T01:48:32.576Z,103428.75
2023-01-23T01:50:35.426Z,103429.81
2023-01-23T01:52:37.289Z,103427.25
2023-01-23T01:54:47.173Z,103424.44
2023-01-23T01:56:55.657Z,103421.00
2023-01-23T01:59:00.586Z,103420.09
2023-01-23T02:01:02.426Z,103425.19
2023-01-23T02:03:04.342Z,103433.56
2023-01-23T02:05:27.711Z,103425.94
2023-01-23T02:07:41.994Z,103427.13
2023-01-23T02:09:43.903Z,103426.06
2023-01-23T02:11:45.664Z,103433.69
2023-01-23T02:13:47.848Z,103440.28
2023-01-23T02:15:50.139Z,103434.91
2023-01-23T02:17:54.973Z,103432.66
2023-01-23T02:20:13.425Z,103435.81
2023-01-23T02:22:46.900Z,103448.66
2023-01-23T02:25:06.439Z,103445.97
2023-01-23T02:27:08.671Z,103443.56
2023-01-23T02:29:11.678Z,103457.78
2023-01-23T02:31:14.595Z,103459.41
2023-01-23T02:33:19.404Z,103470.47
2023-01-23T02:35:30.677Z,103468.34
2023-01-23T02:37:34.746Z,103468.97
2023-01-23T02:39:37.690Z,103467.31
2023-01-23T02:41:42.689Z,103470.47
2023-01-23T02:43:45.718Z,103472.56
2023-01-23T02:45:48.082Z,103484.19
2023-01-23T02:47:49.817Z,103482.41
2023-01-23T02:49:51.624Z,103482.97
2023-01-23T02:51:54.810Z,103477.91
2023-01-23T02:53:56.570Z,103475.06
2023-01-23T02:56:00.211Z,103482.69
2023-01-23T02:58:20.479Z,103474.31
2023-01-23T03:00:22.928Z,103488.06
2023-01-23T03:02:25.040Z,103491.63
2023-01-23T03:04:26.902Z,103500.75
2023-01-23T03:06:28.620Z,103493.13
2023-01-23T03:08:36.287Z,103497.16
2023-01-23T03:10:38.151Z,103506.56
2023-01-23T03:12:43.485Z,103502.25
2023-01-23T03:14:45.572Z,103502.38
2023-01-23T03:16:51.515Z,103499.69
2023-01-23T03:18:54.731Z,103495.19
2023-01-23T03:21:02.559Z,103496.09
2023-01-23T03:23:04.280Z,103494.59
2023-01-23T03:25:06.234Z,103496.38
2023-01-23T03:27:08.330Z,103498.75
2023-01-23T03:29:38.316Z,103497.22
2023-01-23T03:31:40.571Z,103506.34
2023-01-23T03:33:43.650Z,103511.50
2023-01-23T03:35:45.755Z,103515.03
2023-01-23T03:37:48.828Z,103510.06
2023-01-23T03:40:09.270Z,103507.50
2023-01-23T03:42:11.029Z,103513.25
2023-01-23T03:44:13.136Z,103510.69
2023-01-23T03:46:14.950Z,103513.91
2023-01-23T03:48:16.695Z,103514.38
2023-01-23T03:50:18.840Z,103514.00
2023-01-23T03:52:20.715Z,103521.28
2023-01-23T03:54:22.432Z,103513.25
2023-01-23T03:56:24.267Z,103514.22
2023-01-23T03:58:26.036Z,103515.63
2023-01-23T04:00:27.906Z,103520.41
2023-01-23T04:02:29.671Z,103514.50
2023-01-23T04:04:33.715Z,103514.56
2023-01-23T04:06:35.635Z,103520.25
2023-01-23T04:08:37.465Z,103523.84
2023-01-23T04:10:39.444Z,103522.94
2023-01-23T04:12:43.793Z,103529.25
2023-01-23T04:14:45.668Z,103522.94
2023-01-23T04:16:47.751Z,103527.13
2023-01-23T04:18:51.018Z,103528.91
2023-01-23T04:20:53.007Z,103530.00
2023-01-23T04:22:54.938Z,103527.28
2023-01-23T04:24:56.681Z,103516.97
2023-01-23T04:26:58.397Z,103533.69
2023-01-23T04:29:00.111Z,103526.97
2023-01-23T04:31:02.103Z,103525.44
2023-01-23T04:33:03.903Z,103512.34
2023-01-23T04:35:06.184Z,103509.50
2023-01-23T04:37:07.928Z,103508.91
2023-01-23T04:39:09.763Z,103512.78
2023-01-23T04:41:20.582Z,103510.41
2023-01-23T04:43:22.178Z,103512.88
2023-01-23T04:45:23.962Z,103515.66
2023-01-23T04:47:25.775Z,103519.25
2023-01-23T04:49:27.979Z,103523.91
2023-01-23T04:51:29.682Z,103519.81
2023-01-23T04:53:31.751Z,103528.81
2023-01-23T04:55:34.165Z,103523.53
2023-01-23T04:57:35.935Z,103532.03
2023-01-23T04:59:37.690Z,103527.63
2023-01-23T05:01:39.571Z,103529.63
2023-01-23T05:03:41.377Z,103526.34
2023-01-23T05:05:44.340Z,103520.38
2023-01-23T05:07:46.103Z,103523.81
2023-01-23T05:09:47.886Z,103521.03
2023-01-23T05:11:49.768Z,103524.81
2023-01-23T05:13:51.447Z,103520.56
2023-01-23T05:15:53.322Z,103519.00
2023-01-23T05:17:55.188Z,103520.78
2023-01-23T05:19:56.941Z,103522.03
2023-01-23T05:21:58.697Z,103515.19
2023-01-23T05:24:00.570Z,103516.41
2023-01-23T05:26:02.409Z,103515.34
2023-01-23T05:28:04.452Z,103516.41
2023-01-23T05:30:07.370Z,103513.78
2023-01-23T05:32:09.189Z,103514.19
2023-01-23T05:34:10.899Z,103517.78
2023-01-23T05:36:12.851Z,103512.94
2023-01-23T05:38:14.806Z,103510.25
2023-01-23T05:40:17.357Z,103514.44
2023-01-23T05:42:19.224Z,103517.69
2023-01-23T05:44:20.944Z,103513.69
2023-01-23T05:46:22.720Z,103512.41
2023-01-23T05:48:24.567Z,103507.47
2023-01-23T05:50:26.331Z,103509.63
2023-01-23T05:52:28.506Z,103511.31
2023-01-23T05:54:30.343Z,103517.13
2023-01-23T05:56:32.155Z,103507.47
2023-01-23T05:58:34.126Z,103510.75
2023-01-23T06:00:36.732Z,103514.69
2023-01-23T06:02:38.667Z,103514.84
2023-01-23T06:04:49.362Z,103516.81
2023-01-23T06:06:51.067Z,103518.91
2023-01-23T06:08:52.877Z,103527.19
2023-01-23T06:10:54.617Z,103522.53
2023-01-23T06:12:56.328Z,103521.78
2023-01-23T06:14:58.004Z,103526.34
2023-01-23T06:16:59.675Z,103522.03
2023-01-23T06:19:01.383Z,103530.25
2023-01-23T06:21:03.739Z,103532.22
2023-01-23T06:23:05.892Z,103535.06
2023-01-23T06:25:07.969Z,103533.44
2023-01-23T06:27:09.808Z,103530.84
2023-01-23T06:29:11.819Z,103537.13
2023-01-23T06:31:13.596Z,103540.38
2023-01-23T06:33:15.697Z,103531.09
2023-01-23T06:35:17.805Z,103536.84
2023-01-23T06:37:19.761Z,103538.94
2023-01-23T06:39:21.516Z,103540.66
2023-01-23T06:41:24.515Z,103541.88
2023-01-23T06:43:26.848Z,103545.81
2023-01-23T06:45:28.608Z,103550.16
2023-01-23T06:47:30.339Z,103558.97
2023-01-23T06:49:32.212Z,103557.16
2023-01-23T06:51:34.603Z,103550.16
2023-01-23T06:53:36.911Z,103554.38
2023-01-23T06:55:38.723Z,103553.31
2023-01-23T06:57:43.458Z,103555.84
2023-01-23T06:59:45.174Z,103567.78
2023-01-23T07:01:47.057Z,103563.44
2023-01-23T07:03:48.939Z,103566.72
2023-01-23T07:05:50.987Z,103568.03
2023-01-23T07:07:52.799Z,103566.78
2023-01-23T07:09:54.549Z,103560.84
2023-01-23T07:11:56.420Z,103562.56
2023-01-23T07:13:58.433Z,103561.91
2023-01-23T07:16:00.281Z,103562.38
2023-01-23T07:18:02.432Z,103557.88
2023-01-23T07:20:04.500Z,103563.84
2023-01-23T07:22:06.301Z,103566.75
2023-01-23T07:24:08.089Z,103564.66
2023-01-23T07:26:11.710Z,103568.06
2023-01-23T07:28:13.947Z,103564.31
2023-01-23T07:30:16.492Z,103564.31
2023-01-23T07:32:18.286Z,103570.84
2023-01-23T07:34:19.968Z,103568.31
2023-01-23T07:36:21.664Z,103565.59
2023-01-23T07:38:23.611Z,103564.53
2023-01-23T07:40:25.742Z,103574.28
2023-01-23T07:42:27.573Z,103572.81
2023-01-23T07:44:29.327Z,103577.72
2023-01-23T07:46:31.217Z,103572.66
2023-01-23T07:48:33.089Z,103574.28
2023-01-23T07:50:35.879Z,103574.44
2023-01-23T07:52:38.000Z,103582.94
2023-01-23T07:58:05.545Z,103577.13
2023-01-23T08:00:08.189Z,103578.03
2023-01-23T08:02:11.336Z,103570.78
2023-01-23T08:04:17.935Z,103572.56
2023-01-23T08:06:20.613Z,103568.25
2023-01-23T08:08:22.435Z,103566.44
2023-01-23T08:10:24.195Z,103573.13
2023-01-23T08:12:26.018Z,103572.41
2023-01-23T08:14:28.127Z,103571.28
2023-01-23T08:16:29.897Z,103570.19
2023-01-23T08:18:32.355Z,103561.16
2023-01-23T08:20:34.556Z,103561.91
2023-01-23T08:22:40.749Z,103559.09
2023-01-23T08:24:55.899Z,103562.38
2023-01-23T08:26:57.786Z,103552.41
2023-01-23T08:29:00.219Z,103555.50
2023-01-23T08:31:08.130Z,103551.66
2023-01-23T08:33:09.945Z,103543.91
2023-01-23T08:35:11.908Z,103552.41
2023-01-23T08:37:13.637Z,103545.13
2023-01-23T08:39:17.483Z,103544.59
2023-01-23T08:41:19.337Z,103544.59
2023-01-23T08:43:22.147Z,103547.44
2023-01-23T08:45:23.955Z,103549.22
2023-01-23T08:47:25.693Z,103551.03
2023-01-23T08:49:27.423Z,103556.84
2023-01-23T08:51:29.310Z,103564.00
2023-01-23T08:53:31.875Z,103553.19
2023-01-23T08:55:36.237Z,103554.97
2023-01-23T08:57:37.995Z,103555.44
2023-01-23T08:59:39.648Z,103563.38
2023-01-23T09:01:41.407Z,103570.22
2023-01-23T09:03:43.154Z,103570.72
2023-01-23T09:05:44.903Z,103576.13
2023-01-23T09:07:48.089Z,103584.03
2023-01-23T09:09:49.866Z,103578.75
2023-01-23T09:11:51.542Z,103583.97
2023-01-23T09:13:54.128Z,103590.59
2023-01-23T09:15:56.283Z,103588.06
2023-01-23T09:17:58.162Z,103585.53
2023-01-23T09:20:00.815Z,103584.94
2023-01-23T09:22:02.877Z,103583.31
2023-01-23T09:24:04.823Z,103582.25
2023-01-23T09:26:12.109Z,103587.78
2023-01-23T09:28:14.109Z,103590.84
2023-01-23T09:30:16.088Z,103592.47
2023-01-23T09:32:17.966Z,103592.94
2023-01-23T09:34:19.887Z,103600.31
2023-01-23T09:36:33.630Z,103603.31
2023-01-23T09:38:43.274Z,103611.75
2023-01-23T09:40:53.513Z,103613.84
2023-01-23T09:42:58.958Z,103620.63
2023-01-23T09:45:04.464Z,103625.28
2023-01-23T09:47:20.304Z,103617.13
2023-01-23T09:49:41.363Z,103620.56
2023-01-23T09:52:01.249Z,103616.09
2023-01-23T09:54:24.350Z,103616.16
2023-01-23T09:56:35.325Z,103618.63
2023-01-23T09:58:46.161Z,103620.41
2023-01-23T10:00:48.882Z,103618.34
2023-01-23T10:02:53.643Z,103620.47
2023-01-23T10:05:02.749Z,103631.56
2023-01-23T10:07:23.003Z,103624.56
2023-01-23T10:09:45.993Z,103628.81
2023-01-23T10:11:58.995Z,103639.25
2023-01-23T10:14:26.655Z,103631.69
2023-01-23T10:17:02.758Z,103640.38
2023-01-23T10:19:22.430Z,103644.34
2023-01-23T10:21:27.075Z,103640.16
2023-01-23T10:23:40.074Z,103650.34
2023-01-23T10:25:42.105Z,103638.56
2023-01-23T10:27:47.892Z,103642.78
2023-01-23T10:29:57.225Z,103643.25
2023-01-23T10:32:01.840Z,103653.88
2023-01-23T10:34:20.488Z,103649.28
2023-01-23T10:37:00.426Z,103651.81
2023-01-23T10:39:11.883Z,103653.22
2023-01-23T10:41:15.614Z,103648.44
2023-01-23T10:43:22.315Z,103652.66
2023-01-23T10:45:25.457Z,103653.38
2023-01-23T10:47:37.131Z,103649.94
2023-01-23T10:49:45.800Z,103649.63
2023-01-23T10:51:48.932Z,103642.63
2023-01-23T10:54:36.621Z,103625.97
2023-01-23T10:56:49.511Z,103625.50
2023-01-23T10:58:56.139Z,103622.81
2023-01-23T11:00:58.371Z,103625.94
2023-01-23T11:03:24.836Z,103622.03
2023-01-23T11:05:52.971Z,103623.66
2023-01-23T11:07:56.062Z,103626.19
2023-01-23T11:10:00.821Z,103616.88
2023-01-23T11:12:06.563Z,103625.25
2023-01-23T11:14:21.763Z,103614.47
2023-01-23T11:16:24.148Z,103616.41
2023-01-23T11:18:34.086Z,103620.09
2023-01-23T11:20:39.014Z,103607.19
2023-01-23T11:22:44.210Z,103594.84
2023-01-23T11:25:01.845Z,103601.97
2023-01-23T11:27:20.463Z,103599.50
2023-01-23T11:29:24.472Z,103597.34
2023-01-23T11:31:28.609Z,103588.72
2023-01-23T11:33:52.654Z,103594.56
2023-01-23T11:36:03.421Z,103576.38
2023-01-23T11:38:05.207Z,103570.78
2023-01-23T11:40:14.147Z,103578.63
2023-01-23T11:42:17.637Z,103579.06
2023-01-23T11:44:23.638Z,103576.56
2023-01-23T11:46:47.559Z,103568.94
2023-01-23T11:49:31.380Z,103569.25
2023-01-23T11:51:49.123Z,103571.09
2023-01-23T11:54:14.188Z,103558.72
2023-01-23T11:56:30.897Z,103562.75
2023-01-23T11:58:49.034Z,103559.19
2023-01-23T12:01:16.705Z,103567.66
2023-01-23T12:03:32.645Z,103564.56
2023-01-23T12:05:40.201Z,103568.69
2023-01-23T12:07:54.117Z,103567.41
2023-01-23T12:10:20.756Z,103567.03
2023-01-23T12:12:45.062Z,103563.72
2023-01-23T12:14:52.185Z,103562.94
2023-01-23T12:17:09.217Z,103571.75
2023-01-23T12:19:29.695Z,103573.44
2023-01-23T12:21:56.223Z,103569.09
2023-01-23T12:24:11.438Z,103565.00
2023-01-23T12:26:24.791Z,103564.25
2023-01-23T12:28:54.379Z,103569.47
2023-01-23T12:30:56.311Z,103569.47
2023-01-23T12:33:03.159Z,103566.16
2023-01-23T12:35:23.914Z,103565.75
2023-01-23T12:37:53.279Z,103567.53
2023-01-23T12:40:14.230Z,103570.50
2023-01-23T12:42:21.847Z,103574.59
2023-01-23T12:44:32.164Z,103571.16
2023-01-23T12:46:40.303Z,103574.31
2023-01-23T12:49:10.235Z,103564.63
2023-01-23T12:51:32.553Z,103568.06
2023-01-23T12:53:38.374Z,103567.72
2023-01-23T12:55:46.065Z,103557.47
2023-01-23T12:57:59.828Z,103561.69
2023-01-23T13:00:21.199Z,103557.47
2023-01-23T13:02:42.259Z,103550.72
2023-01-23T13:05:27.644Z,103535.97
2023-01-23T13:07:58.958Z,103529.34
2023-01-23T13:10:52.067Z,103533.94
2023-01-23T13:12:56.326Z,103537.03
2023-01-23T13:15:27.766Z,103530.63
2023-01-23T13:17:49.205Z,103533.69
2023-01-23T13:20:09.631Z,103540.84
2023-01-23T13:22:32.320Z,103542.25
2023-01-23T13:25:18.012Z,103541.84
2023-01-23T13:27:47.369Z,103545.94
2023-01-23T13:29:50.665Z,103540.56
2023-01-23T13:32:23.333Z,103539.78
2023-01-23T13:34:25.546Z,103544.91
2023-01-23T13:36:31.217Z,103545.38
2023-01-23T13:38:39.616Z,103542.97
2023-01-23T13:41:01.363Z,103539.63
2023-01-23T13:43:55.050Z,103536.28
2023-01-23T13:45:57.176Z,103531.16
2023-01-23T14:20:23.236Z,103514.25
2023-01-23T14:22:28.191Z,103510.16
2023-01-23T14:24:55.048Z,103520.16
2023-01-23T14:27:07.480Z,103520.09
2023-01-23T14:29:23.932Z,103510.44
2023-01-23T14:31:34.164Z,103511.75
2023-01-23T14:33:45.353Z,103520.47
2023-01-23T14:35:47.408Z,103520.00
2023-01-23T14:37:50.158Z,103515.56
2023-01-23T14:39:53.647Z,103521.47
2023-01-23T14:42:02.367Z,103521.13
2023-01-23T14:44:05.168Z,103524.22
2023-01-23T14:46:18.250Z,103521.50
2023-01-23T14:48:21.506Z,103522.16
2023-01-23T14:50:26.773Z,103525.91
2023-01-23T14:52:30.928Z,103520.81
2023-01-23T14:54:34.653Z,103523.63
2023-01-23T14:56:39.358Z,103518.28
2023-01-23T14:58:41.666Z,103519.53
2023-01-23T15:00:46.168Z,103517.84
2023-01-23T15:02:54.464Z,103516.19
2023-01-23T15:05:19.719Z,103517.72
2023-01-23T15:07:21.658Z,103521.84
2023-01-23T15:09:45.961Z,103524.41
2023-01-23T15:11:48.238Z,103522.84
2023-01-23T15:13:55.158Z,103521.84
2023-01-23T15:15:59.965Z,103521.56
2023-01-23T15:18:05.841Z,103518.13
2023-01-23T15:20:33.083Z,103516.88
2023-01-23T15:22:35.909Z,103530.44
2023-01-23T15:24:37.692Z,103522.00
2023-01-23T15:26:42.023Z,103524.53
2023-01-23T15:29:00.464Z,103528.00
2023-01-23T15:31:02.482Z,103520.09
2023-01-23T15:33:22.562Z,103529.69
2023-01-23T15:35:25.055Z,103527.50
2023-01-23T15:37:28.107Z,103525.97
2023-01-23T15:39:34.631Z,103534.81
2023-01-23T15:42:05.528Z,103523.44
2023-01-23T15:44:18.628Z,103520.91
2023-01-23T15:46:20.501Z,103527.16
2023-01-23T15:48:22.486Z,103529.34
2023-01-23T15:50:24.547Z,103527.28
2023-01-23T15:52:30.037Z,103527.78
2023-01-23T15:54:49.792Z,103526.16
2023-01-23T15:57:05.398Z,103525.75
2023-01-23T15:59:16.415Z,103528.16
2023-01-23T16:01:18.344Z,103523.19
2023-01-23T16:03:20.263Z,103521.16
2023-01-23T16:05:27.018Z,103521.16
2023-01-23T16:07:34.953Z,103520.75
2023-01-23T16:09:39.518Z,103516.81
2023-01-23T16:11:41.668Z,103517.81
2023-01-23T16:13:43.505Z,103522.16
2023-01-23T16:15:45.283Z,103524.72
2023-01-23T16:17:47.854Z,103518.06
2023-01-23T16:19:50.882Z,103518.72
2023-01-23T16:22:03.971Z,103524.84
2023-01-23T16:24:07.165Z,103525.13
2023-01-23T16:26:21.519Z,103522.69
2023-01-23T16:28:26.668Z,103519.75
2023-01-23T16:30:28.705Z,103528.31
2023-01-23T16:32:30.560Z,103531.91
2023-01-23T16:34:32.580Z,103531.63
2023-01-23T16:36:34.388Z,103535.72
2023-01-23T16:38:36.249Z,103530.75
2023-01-23T16:40:38.145Z,103535.97
2023-01-23T16:42:40.742Z,103530.47
2023-01-23T16:44:47.185Z,103539.31
2023-01-23T16:46:49.786Z,103537.91
2023-01-23T16:48:54.864Z,103536.25
2023-01-23T16:51:05.314Z,103539.06
2023-01-23T16:53:23.250Z,103548.50
2023-01-23T16:55:30.326Z,103549.81
2023-01-23T16:57:33.426Z,103555.28
2023-01-23T16:59:37.917Z,103546.31
2023-01-23T17:01:41.935Z,103557.84
2023-01-23T17:03:44.963Z,103567.56
2023-01-23T17:05:46.967Z,103564.09
2023-01-23T17:07:48.944Z,103560.41
2023-01-23T17:09:51.936Z,103564.75
2023-01-23T17:11:55.954Z,103574.84
2023-01-23T17:14:00.942Z,103567.97
2023-01-23T17:16:07.388Z,103560.16
2023-01-23T17:18:27.281Z,103562.59
2023-01-23T17:20:29.129Z,103562.31
2023-01-23T17:22:37.232Z,103566.78
2023-01-23T17:24:48.959Z,103569.50
2023-01-23T17:26:50.688Z,103572.06
2023-01-23T17:28:52.626Z,103582.13
2023-01-23T17:30:55.717Z,103584.97
2023-01-23T17:32:58.341Z,103588.41
2023-01-23T17:35:03.191Z,103582.41
2023-01-23T17:37:13.255Z,103578.84
2023-01-23T17:39:15.106Z,103576.41
2023-01-23T17:41:17.746Z,103577.94
2023-01-23T17:43:21.074Z,103575.38
2023-01-23T17:45:24.758Z,103582.91
2023-01-23T17:47:34.889Z,103585.88
2023-01-23T17:49:36.892Z,103586.34
2023-01-23T17:51:38.678Z,103583.44
2023-01-23T17:53:42.220Z,103581.50
2023-01-23T17:55:48.154Z,103587.00
2023-01-23T17:57:50.533Z,103591.34
2023-01-23T17:59:55.486Z,103590.44
2023-01-23T18:01:58.500Z,103588.41
2023-01-23T18:04:00.299Z,103591.09
2023-01-23T18:06:02.159Z,103594.69
2023-01-23T18:08:04.187Z,103595.44
2023-01-23T18:10:08.202Z,103589.97
2023-01-23T18:12:20.123Z,103591.75
2023-01-23T18:14:31.299Z,103594.78
2023-01-23T18:16:40.187Z,103588.53
2023-01-23T18:18:43.310Z,103585.34
2023-01-23T18:20:45.298Z,103586.34
2023-01-23T18:22:47.703Z,103592.13
2023-01-23T18:24:55.292Z,103592.13
2023-01-23T18:27:05.177Z,103591.47
2023-01-23T18:29:26.428Z,103597.63
2023-01-23T18:31:41.099Z,103598.66
2023-01-23T18:33:52.317Z,103600.31
2023-01-23T18:36:13.039Z,103599.66
2023-01-23T18:38:28.911Z,103602.75
2023-01-23T18:40:43.349Z,103601.69
2023-01-23T18:43:30.442Z,103609.78
2023-01-23T18:45:33.236Z,103611.19
2023-01-23T18:47:35.351Z,103606.56
2023-01-23T18:49:37.710Z,103614.66
2023-01-23T18:51:49.818Z,103610.66
2023-01-23T18:54:16.117Z,103621.16
2023-01-23T18:56:43.264Z,103623.06
2023-01-23T18:58:52.348Z,103616.03
2023-01-23T19:01:22.639Z,103616.56
2023-01-23T19:03:38.691Z,103614.13
2023-01-23T19:05:40.811Z,103618.72
2023-01-23T19:07:43.699Z,103616.03
2023-01-23T19:09:46.976Z,103616.31
2023-01-23T19:12:34.521Z,103613.22
2023-01-23T19:14:38.939Z,103611.44
2023-01-23T19:16:54.121Z,103618.09
2023-01-23T19:19:10.719Z,103611.81
2023-01-23T19:21:23.729Z,103619.00
2023-01-23T19:23:34.714Z,103612.22
2023-01-23T19:25:36.476Z,103616.31
2023-01-23T19:27:38.432Z,103611.44
2023-01-23T19:29:40.502Z,103608.47
2023-01-23T19:31:47.475Z,103616.81
2023-01-23T19:33:59.522Z,103624.72
2023-01-23T19:36:02.009Z,103620.13
2023-01-23T19:38:03.875Z,103624.72
2023-01-23T19:40:10.638Z,103621.16
2023-01-23T19:42:14.796Z,103620.91
2023-01-23T19:44:19.107Z,103627.94
2023-01-23T19:46:22.454Z,103630.13
2023-01-23T19:48:24.329Z,103633.28
2023-01-23T19:50:26.144Z,103623.97
2023-01-23T19:52:27.933Z,103636.78
2023-01-23T19:54:29.674Z,103637.66
2023-01-23T19:56:31.463Z,103634.69
2023-01-23T19:58:33.392Z,103646.84
2023-01-23T20:00:36.375Z,103646.72
2023-01-23T20:02:38.151Z,103643.38
2023-01-23T20:04:39.884Z,103649.69
2023-01-23T20:06:42.980Z,103638.56
2023-01-23T20:08:44.918Z,103649.28
2023-01-23T20:10:46.626Z,103658.84
2023-01-23T20:12:52.265Z,103657.34
2023-01-23T20:14:56.992Z,103654.28
2023-01-23T20:16:58.976Z,103657.47
2023-01-23T20:19:00.899Z,103652.63
2023-01-23T20:21:02.738Z,103660.03
2023-01-23T20:23:04.714Z,103660.03
2023-01-23T20:25:08.882Z,103661.56
2023-01-23T20:27:10.704Z,103656.59
2023-01-23T20:29:12.567Z,103661.81
2023-01-23T20:31:14.691Z,103659.78
2023-01-23T20:33:16.529Z,103652.84
2023-01-23T20:35:18.426Z,103655.41
2023-01-23T20:37:20.301Z,103656.81
2023-01-23T20:39:22.114Z,103656.06
2023-01-23T20:41:24.025Z,103651.47
2023-01-23T20:43:25.753Z,103652.13
2023-01-23T20:45:27.530Z,103640.72
2023-01-23T20:47:29.499Z,103641.72
2023-01-23T20:49:31.392Z,103642.50
2023-01-23T20:51:33.304Z,103638.56
2023-01-23T20:53:35.878Z,103637.50
2023-01-23T20:55:37.658Z,103637.50
2023-01-23T20:57:57.980Z,103645.69
2023-01-23T21:01:10.789Z,103646.06
2023-01-23T21:03:12.687Z,103648.03
2023-01-23T21:05:14.408Z,103648.28
2023-01-23T21:07:17.011Z,103646.72
2023-01-23T21:09:18.850Z,103643.53
2023-01-23T21:11:21.109Z,103642.00
2023-01-23T21:13:22.799Z,103648.03
2023-01-23T21:15:24.658Z,103647.25
2023-01-23T21:17:27.332Z,103646.63
2023-01-23T21:19:29.017Z,103650.06
2023-01-23T21:21:30.760Z,103657.75
2023-01-23T21:23:33.159Z,103661.31
2023-01-23T21:25:36.029Z,103654.41
2023-01-23T21:27:37.709Z,103657.09
2023-01-23T21:29:39.581Z,103655.19
2023-01-23T21:31:42.018Z,103654.28
2023-01-23T21:33:44.959Z,103652.88
2023-01-23T21:35:50.924Z,103654.53
2023-01-23T21:37:52.547Z,103648.53
2023-01-23T21:39:54.243Z,103661.06
2023-01-23T21:41:55.896Z,103658.88
2023-01-23T21:43:57.605Z,103656.97
2023-01-23T21:45:59.447Z,103654.53
2023-01-23T21:48:01.195Z,103661.19
2023-01-23T21:50:02.934Z,103664.38
2023-01-23T21:52:04.848Z,103665.91
2023-01-23T21:54:06.680Z,103661.28
2023-01-23T21:56:09.859Z,103654.13
2023-01-23T21:58:11.607Z,103659.78
2023-01-23T22:00:32.034Z,103656.44
2023-01-23T22:02:33.840Z,103656.16
2023-01-23T22:04:36.144Z,103660.50
2023-01-23T22:06:40.512Z,103663.03
2023-01-23T22:08:42.602Z,103665.50
2023-01-23T22:10:44.484Z,103662.16
2023-01-23T22:12:46.194Z,103664.72
2023-01-23T22:14:55.864Z,103667.69
2023-01-23T22:16:57.718Z,103665.13
2023-01-23T22:19:14.662Z,103662.47
2023-01-23T22:21:21.044Z,103675.13
2023-01-23T22:23:47.659Z,103671.28
2023-01-23T22:25:50.593Z,103666.94
2023-01-23T22:28:16.441Z,103668.34
2023-01-23T22:30:18.265Z,103676.00
2023-01-23T22:32:20.507Z,103670.25
2023-01-23T22:34:22.685Z,103670.91
2023-01-23T22:36:24.755Z,103669.34
2023-01-23T22:38:27.018Z,103659.00
2023-01-23T22:40:29.238Z,103664.25
2023-01-23T22:42:31.374Z,103667.19
2023-01-23T22:44:33.661Z,103660.78
2023-01-23T22:46:35.848Z,103658.59
2023-01-23T22:48:39.188Z,103657.97
2023-01-23T22:50:41.521Z,103665.63
2023-01-23T22:52:43.902Z,103663.72
2023-01-23T22:54:53.980Z,103674.84
2023-01-23T22:56:55.616Z,103668.84
2023-01-23T22:58:57.433Z,103674.84
2023-01-23T23:00:59.080Z,103670.50
2023-01-23T23:03:00.741Z,103661.16
2023-01-23T23:05:02.443Z,103669.47
2023-01-23T23:07:04.312Z,103667.06
2023-01-23T23:09:06.032Z,103666.28
2023-01-23T23:11:10.827Z,103673.28
2023-01-23T23:13:12.517Z,103665.38
2023-01-23T23:15:15.997Z,103673.19
2023-01-23T23:17:18.310Z,103671.53
2023-01-23T23:19:19.978Z,103676.50
2023-01-23T23:21:25.333Z,103674.84
2023-01-23T23:23:27.651Z,103680.59
2023-01-23T23:25:29.371Z,103676.50
2023-01-23T23:27:31.009Z,103669.72
2023-01-23T23:29:32.874Z,103669.72
2023-01-23T23:31:34.955Z,103663.06
2023-01-23T23:33:37.178Z,103669.72
2023-01-23T23:35:38.897Z,103667.69
2023-01-23T23:37:40.678Z,103669.59
2023-01-23T23:39:42.399Z,103666.16
2023-01-23T23:41:44.066Z,103666.69
2023-01-23T23:43:45.913Z,103665.25
2023-01-23T23:45:52.168Z,103657.59
2023-01-23T23:47:55.106Z,103661.69
2023-01-23T23:49:56.817Z,103665.63
2023-01-23T23:51:58.549Z,103663.84
2023-01-23T23:54:00.233Z,103663.25
2023-01-23T23:56:02.319Z,103666.69
2023-01-23T23:58:04.111Z,103665.78
